Time,TemperatureF,DewpointF,PressureIn,WindDirection,WindDirectionDegrees,WindSpeedMPH,WindSpeedGustMPH,Humidity,HourlyPrecipIn,Conditions,Clouds,dailyrainin,SolarRadiationWatts/m^2,SoftwareType,DateUTC
2013-01-01 00:02:00,53.7,52.0,29.92,WSW,247,0.0,0.0,94,0.01,,---,0.05,0.00,VWS V14.00,2013-01-01 06:02:00,
2013-01-01 00:07:00,53.7,52.0,29.92,WSW,247,0.0,0.0,94,0.00,,---,0.00,0.00,VWS V14.00,2013-01-01 06:07:00,
2013-01-01 00:12:00,53.6,51.9,29.92,WSW,247,0.0,0.0,94,0.00,,---,0.00,0.00,VWS V14.00,2013-01-01 06:12:00,
2013-01-01 00:17:00,53.6,51.9,29.92,WSW,247,0.0,0.0,94,0.00,,---,0.00,0.00,VWS V14.00,2013-01-01 06:17:00,
2013-01-01 00:22:00,53.6,51.9,29.91,WSW,247,0.0,0.0,94,0.00,,---,0.00,0.00,VWS V14.00,2013-01-01 06:22:00,
2013-01-01 00:27:00,53.7,52.3,29.91,WSW,247,0.0,0.0,95,0.00,,---,0.00,0.00,VWS V14.00,2013-01-01 06:27:00,
2013-01-01 00:32:00,53.9,52.5,29.91,WSW,247,0.0,0.0,95,0.00,,---,0.00,0.00,VWS V14.00,2013-01-01 06:32:00,
2013-01-01 00:37:00,54.1,52.7,29.91,WSW,247,2.0,2.0,95,0.00,,---,0.00,0.00,VWS V14.00,2013-01-01 06:37:00,
2013-01-01 00:42:00,54.2,52.8,29.91,WSW,247,1.0,1.0,95,0.00,,---,0.00,0.00,VWS V14.00,2013-01-01 06:42:00,
2013-01-01 00:47:00,54.2,52.8,29.92,WSW,247,1.0,4.0,95,0.00,,---,0.00,0.00,VWS V14.00,2013-01-01 06:47:00,
2013-01-01 00:52:00,54.2,52.8,29.92,WSW,247,0.0,4.0,95,0.00,,---,0.00,0.00,VWS V14.00,2013-01-01 06:52:00,
2013-01-01 00:57:00,54.1,52.7,29.92,WSW,247,0.0,3.0,95,0.00,,---,0.00,0.00,VWS V14.00,2013-01-01 06:57:00,
2013-01-01 01:01:00,54.0,52.6,29.91,WSW,247,1.0,3.0,95,0.00,,---,0.00,0.00,VWS V14.00,2013-01-01 07:01:00,
2013-01-01 01:06:00,54.0,52.6,29.91,WSW,247,0.0,3.0,95,0.00,,---,0.00,0.00,VWS V14.00,2013-01-01 07:06:00,
2013-01-01 01:11:00,54.1,52.7,29.91,WSW,247,0.0,3.0,95,0.00,,---,0.00,0.00,VWS V14.00,2013-01-01 07:11:00,
2013-01-01 01:16:00,54.1,52.7,29.91,WSW,247,0.0,0.0,95,0.00,,---,0.00,0.00,VWS V14.00,2013-01-01 07:16:00,
2013-01-01 01:22:00,54.1,52.7,29.90,WSW,247,0.0,0.0,95,0.00,,---,0.00,0.00,VWS V14.00,2013-01-01 07:22:00,
2013-01-01 01:27:00,54.0,52.6,29.90,WSW,247,0.0,3.0,95,0.00,,---,0.00,0.00,VWS V14.00,2013-01-01 07:27:00,
2013-01-01 01:31:00,54.0,52.6,29.90,WSW,247,0.0,3.0,95,0.00,,---,0.00,0.00,VWS V14.00,2013-01-01 07:31:00,
2013-01-01 01:36:00,54.1,52.7,29.90,WSW,247,0.0,0.0,95,0.00,,---,0.00,0.00,VWS V14.00,2013-01-01 07:36:00,
2013-01-01 01:41:00,54.2,52.8,29.90,WSW,247,0.0,0.0,95,0.00,,---,0.00,0.00,VWS V14.00,2013-01-01 07:41:00,
2013-01-01 01:46:00,54.2,52.8,29.90,WSW,247,0.0,0.0,95,0.00,,---,0.00,0.00,VWS V14.00,2013-01-01 07:46:00,
2013-01-01 01:51:00,54.2,52.8,29.91,WSW,247,0.0,0.0,95,0.00,,---,0.00,0.00,VWS V14.00,2013-01-01 07:51:00,
2013-01-01 01:56:00,54.2,52.8,29.91,WSW,247,0.0,0.0,95,0.00,,---,0.00,0.00,VWS V14.00,2013-01-01 07:56:00,
2013-01-01 02:01:00,54.1,52.7,29.91,WSW,247,0.0,0.0,95,0.00,,---,0.00,0.00,VWS V14.00,2013-01-01 08:01:00,
2013-01-01 02:06:00,54.2,53.1,29.90,WSW,247,0.0,2.0,96,0.00,,---,0.00,0.00,VWS V14.00,2013-01-01 08:06:00,
2013-01-01 02:11:00,54.4,53.3,29.91,WSW,247,0.0,2.0,96,0.00,,---,0.00,0.00,VWS V14.00,2013-01-01 08:11:00,
2013-01-01 02:16:00,54.4,53.3,29.91,WSW,247,0.0,0.0,96,0.00,,---,0.00,0.00,VWS V14.00,2013-01-01 08:16:00,
2013-01-01 02:21:00,54.4,53.3,29.91,WSW,247,0.0,2.0,96,0.00,,---,0.00,0.00,VWS V14.00,2013-01-01 08:21:00,
2013-01-01 02:26:00,54.5,53.4,29.91,WSW,247,1.0,2.0,96,0.00,,---,0.00,0.00,VWS V14.00,2013-01-01 08:26:00,
2013-01-01 02:31:00,54.5,53.4,29.90,WSW,247,1.0,2.0,96,0.00,,---,0.00,0.00,VWS V14.00,2013-01-01 08:31:00,
2013-01-01 02:36:00,54.5,53.4,29.90,WSW,247,1.0,1.0,96,0.00,,---,0.00,0.00,VWS V14.00,2013-01-01 08:36:00,
2013-01-01 02:41:00,54.4,53.3,29.90,WSW,247,0.0,3.0,96,0.00,,---,0.00,0.00,VWS V14.00,2013-01-01 08:41:00,
2013-01-01 02:46:00,54.1,53.0,29.91,WSW,247,0.0,3.0,96,0.00,,---,0.00,0.00,VWS V14.00,2013-01-01 08:46:00,
2013-01-01 02:51:00,53.9,52.5,29.93,WSW,247,0.0,3.0,95,0.01,,---,0.01,0.00,VWS V14.00,2013-01-01 08:51:00,
2013-01-01 02:56:00,53.7,52.3,29.92,WSW,247,0.0,4.0,95,0.03,,---,0.03,0.00,VWS V14.00,2013-01-01 08:56:00,
2013-01-01 03:01:00,53.6,52.5,29.94,WSW,247,0.0,4.0,96,0.03,,---,0.03,0.00,VWS V14.00,2013-01-01 09:01:00,
2013-01-01 03:06:00,53.6,52.5,29.94,WSW,247,0.0,1.0,96,0.03,,---,0.03,0.00,VWS V14.00,2013-01-01 09:06:00,
2013-01-01 03:11:00,53.6,52.5,29.94,WSW,247,0.0,1.0,96,0.04,,---,0.04,0.00,VWS V14.00,2013-01-01 09:11:00,
2013-01-01 03:16:00,53.5,52.4,29.94,WSW,247,0.0,0.0,96,0.04,,---,0.04,0.00,VWS V14.00,2013-01-01 09:16:00,
2013-01-01 03:21:00,53.4,52.3,29.95,WSW,247,0.0,1.0,96,0.04,,---,0.04,0.00,VWS V14.00,2013-01-01 09:21:00,
2013-01-01 03:26:00,53.3,51.9,29.95,WSW,247,0.0,2.0,95,0.04,,---,0.04,0.00,VWS V14.00,2013-01-01 09:26:00,
2013-01-01 03:31:00,53.0,51.6,29.94,WSW,247,2.0,3.0,95,0.04,,---,0.04,0.00,VWS V14.00,2013-01-01 09:31:00,
2013-01-01 03:36:00,52.5,51.1,29.95,WSW,247,1.0,4.0,95,0.04,,---,0.04,0.00,VWS V14.00,2013-01-01 09:36:00,
2013-01-01 03:41:00,52.2,50.8,29.95,WSW,247,2.0,6.0,95,0.04,,---,0.04,0.00,VWS V14.00,2013-01-01 09:41:00,
2013-01-01 03:46:00,52.2,50.8,29.95,WSW,247,0.0,3.0,95,0.04,,---,0.04,0.00,VWS V14.00,2013-01-01 09:46:00,
2013-01-01 03:51:00,52.1,50.7,29.95,WSW,247,3.0,4.0,95,0.04,,---,0.04,0.00,VWS V14.00,2013-01-01 09:51:00,
2013-01-01 03:56:00,51.8,50.4,29.95,WSW,247,3.0,6.0,95,0.03,,---,0.04,0.00,VWS V14.00,2013-01-01 09:56:00,
2013-01-01 04:01:00,51.5,50.1,29.95,WSW,247,0.0,6.0,95,0.03,,---,0.04,0.00,VWS V14.00,2013-01-01 10:01:00,
2013-01-01 04:06:00,51.2,49.8,29.96,WSW,247,2.0,4.0,95,0.01,,---,0.04,0.00,VWS V14.00,2013-01-01 10:06:00,
2013-01-01 04:11:00,50.9,49.2,29.96,WSW,247,0.0,4.0,94,0.01,,---,0.04,0.00,VWS V14.00,2013-01-01 10:11:00,
2013-01-01 04:16:00,50.7,49.0,29.95,WSW,247,1.0,4.0,94,0.00,,---,0.04,0.00,VWS V14.00,2013-01-01 10:16:00,
2013-01-01 04:21:00,50.5,48.8,29.95,WSW,247,0.0,4.0,94,0.00,,---,0.04,0.00,VWS V14.00,2013-01-01 10:21:00,
2013-01-01 04:26:00,50.3,48.6,29.96,WSW,247,0.0,4.0,94,0.00,,---,0.04,0.00,VWS V14.00,2013-01-01 10:26:00,
2013-01-01 04:31:00,50.1,48.4,29.95,WSW,247,1.0,4.0,94,0.00,,---,0.04,0.00,VWS V14.00,2013-01-01 10:31:00,
2013-01-01 04:36:00,49.9,48.0,29.95,WSW,247,2.0,4.0,93,0.00,,---,0.04,0.00,VWS V14.00,2013-01-01 10:36:00,
2013-01-01 04:41:00,49.7,47.8,29.97,WSW,247,2.0,5.0,93,0.00,,---,0.04,0.00,VWS V14.00,2013-01-01 10:41:00,
2013-01-01 04:46:00,49.5,47.6,29.97,WSW,247,2.0,5.0,93,0.00,,---,0.04,0.00,VWS V14.00,2013-01-01 10:46:00,
2013-01-01 04:51:00,49.4,47.5,29.97,WSW,247,2.0,6.0,93,0.00,,---,0.04,0.00,VWS V14.00,2013-01-01 10:51:00,
2013-01-01 04:56:00,49.3,47.4,29.97,WSW,247,4.0,5.0,93,0.00,,---,0.04,0.00,VWS V14.00,2013-01-01 10:56:00,
2013-01-01 05:01:00,49.1,47.2,29.97,WSW,247,2.0,6.0,93,0.00,,---,0.04,0.00,VWS V14.00,2013-01-01 11:01:00,
2013-01-01 05:06:00,49.0,47.1,29.97,WSW,247,2.0,8.0,93,0.00,,---,0.04,0.00,VWS V14.00,2013-01-01 11:06:00,
2013-01-01 05:11:00,49.0,47.1,29.97,WSW,247,3.0,8.0,93,0.00,,---,0.04,0.00,VWS V14.00,2013-01-01 11:11:00,
2013-01-01 05:16:00,48.9,47.0,29.97,WSW,247,1.0,4.0,93,0.00,,---,0.04,0.00,VWS V14.00,2013-01-01 11:16:00,
2013-01-01 05:21:00,48.8,46.9,29.97,WSW,247,2.0,4.0,93,0.00,,---,0.04,0.00,VWS V14.00,2013-01-01 11:21:00,
2013-01-01 05:26:00,48.8,46.9,29.98,WSW,247,3.0,6.0,93,0.00,,---,0.04,0.00,VWS V14.00,2013-01-01 11:26:00,
2013-01-01 05:31:00,48.7,46.8,29.98,WSW,247,0.0,6.0,93,0.00,,---,0.04,0.00,VWS V14.00,2013-01-01 11:31:00,
2013-01-01 05:36:00,48.6,46.7,29.98,WSW,247,0.0,4.0,93,0.00,,---,0.04,0.00,VWS V14.00,2013-01-01 11:36:00,
2013-01-01 05:41:00,48.5,46.6,29.99,WSW,247,0.0,4.0,93,0.00,,---,0.04,0.00,VWS V14.00,2013-01-01 11:41:00,
2013-01-01 05:46:00,48.4,46.5,29.99,WSW,247,0.0,4.0,93,0.00,,---,0.04,0.00,VWS V14.00,2013-01-01 11:46:00,
2013-01-01 05:51:00,48.3,46.4,29.99,WSW,247,0.0,4.0,93,0.00,,---,0.04,0.00,VWS V14.00,2013-01-01 11:51:00,
2013-01-01 05:56:00,48.3,46.4,30.00,WSW,247,0.0,0.0,93,0.00,,---,0.04,0.00,VWS V14.00,2013-01-01 11:56:00,
2013-01-01 06:01:00,48.3,46.4,29.99,WSW,247,1.0,2.0,93,0.00,,---,0.04,0.00,VWS V14.00,2013-01-01 12:01:00,
2013-01-01 06:06:00,48.2,47.7,29.99,WSW,247,1.0,4.0,98,0.00,,---,0.04,0.00,VWS V14.00,2013-01-01 12:06:00,
2013-01-01 06:11:00,48.1,46.2,30.00,WSW,247,3.0,4.0,93,0.00,,---,0.04,0.00,VWS V14.00,2013-01-01 12:11:00,
2013-01-01 06:16:00,48.1,46.2,30.00,WSW,247,4.0,7.0,93,0.00,,---,0.04,0.00,VWS V14.00,2013-01-01 12:16:00,
2013-01-01 06:21:00,47.9,46.3,30.00,WSW,247,5.0,7.0,94,0.00,,---,0.04,0.00,VWS V14.00,2013-01-01 12:21:00,
2013-01-01 06:26:00,47.9,46.3,30.00,WSW,247,0.0,5.0,94,0.00,,---,0.04,0.00,VWS V14.00,2013-01-01 12:26:00,
2013-01-01 06:31:00,47.8,46.2,30.00,WSW,247,0.0,5.0,94,0.00,,---,0.04,0.00,VWS V14.00,2013-01-01 12:31:00,
2013-01-01 06:36:00,47.7,46.1,30.00,WSW,247,1.0,3.0,94,0.00,,---,0.04,0.00,VWS V14.00,2013-01-01 12:36:00,
2013-01-01 06:41:00,47.7,46.1,29.99,WSW,247,1.0,3.0,94,0.00,,---,0.04,0.00,VWS V14.00,2013-01-01 12:41:00,
2013-01-01 06:46:00,47.6,46.0,30.00,WSW,247,3.0,3.0,94,0.00,,---,0.04,0.00,VWS V14.00,2013-01-01 12:46:00,
2013-01-01 06:51:00,47.6,46.0,30.01,WSW,247,3.0,4.0,94,0.00,,---,0.04,0.00,VWS V14.00,2013-01-01 12:51:00,
2013-01-01 06:56:00,47.6,46.0,30.01,WSW,247,0.0,4.0,94,0.00,,---,0.04,0.00,VWS V14.00,2013-01-01 12:56:00,
2013-01-01 07:01:00,47.5,45.9,30.01,WSW,247,1.0,4.0,94,0.00,,---,0.04,0.00,VWS V14.00,2013-01-01 13:01:00,
2013-01-01 07:06:00,47.4,45.8,30.01,WSW,247,1.0,2.0,94,0.00,,---,0.04,0.00,VWS V14.00,2013-01-01 13:06:00,
2013-01-01 07:11:00,47.4,45.8,30.03,WSW,247,2.0,3.0,94,0.00,,---,0.04,0.00,VWS V14.00,2013-01-01 13:11:00,
2013-01-01 07:16:00,47.3,45.7,30.02,WSW,247,0.0,6.0,94,0.00,,---,0.04,0.00,VWS V14.00,2013-01-01 13:16:00,
2013-01-01 07:21:00,47.2,45.6,30.02,WSW,247,3.0,6.0,94,0.00,,---,0.04,0.00,VWS V14.00,2013-01-01 13:21:00,
2013-01-01 07:26:00,47.0,45.4,30.03,WSW,247,0.0,4.0,94,0.00,,---,0.04,0.00,VWS V14.00,2013-01-01 13:26:00,
2013-01-01 07:31:00,47.0,45.4,30.04,WSW,247,4.0,4.0,94,0.00,,---,0.04,0.00,VWS V14.00,2013-01-01 13:31:00,
2013-01-01 07:36:00,46.9,45.3,30.04,WSW,247,1.0,4.0,94,0.00,,---,0.04,0.00,VWS V14.00,2013-01-01 13:36:00,
2013-01-01 07:41:00,46.8,45.2,30.04,WSW,247,2.0,4.0,94,0.00,,---,0.04,0.00,VWS V14.00,2013-01-01 13:41:00,
2013-01-01 07:46:00,46.7,45.1,30.04,WSW,247,2.0,4.0,94,0.00,,---,0.04,0.00,VWS V14.00,2013-01-01 13:46:00,
2013-01-01 07:51:00,46.6,45.0,30.04,WSW,247,4.0,5.0,94,0.00,,---,0.04,0.00,VWS V14.00,2013-01-01 13:51:00,
2013-01-01 07:56:00,46.5,44.9,30.05,WSW,247,0.0,4.0,94,0.00,,---,0.04,0.00,VWS V14.00,2013-01-01 13:56:00,
2013-01-01 08:01:00,46.4,44.8,30.05,WSW,247,3.0,4.0,94,0.00,,---,0.04,5.00,VWS V14.00,2013-01-01 14:01:00,
2013-01-01 08:06:00,46.4,45.0,30.06,WSW,247,2.0,4.0,95,0.00,,---,0.04,9.00,VWS V14.00,2013-01-01 14:06:00,
2013-01-01 08:11:00,46.3,45.0,30.07,WSW,247,2.0,4.0,95,0.00,,---,0.04,5.00,VWS V14.00,2013-01-01 14:11:00,
2013-01-01 08:16:00,46.3,45.0,30.07,WSW,247,3.0,4.0,95,0.00,,---,0.04,7.00,VWS V14.00,2013-01-01 14:16:00,
2013-01-01 08:21:00,46.3,45.0,30.07,WSW,247,2.0,6.0,95,0.00,,---,0.04,12.00,VWS V14.00,2013-01-01 14:21:00,
2013-01-01 08:26:00,46.2,44.8,30.07,WSW,247,0.0,4.0,95,0.00,,---,0.04,21.00,VWS V14.00,2013-01-01 14:26:00,
2013-01-01 08:31:00,46.2,44.8,30.07,WSW,247,3.0,4.0,95,0.00,,---,0.04,16.00,VWS V14.00,2013-01-01 14:31:00,
2013-01-01 08:36:00,46.2,44.8,30.07,WSW,247,0.0,4.0,95,0.00,,---,0.04,19.00,VWS V14.00,2013-01-01 14:36:00,
2013-01-01 08:41:00,46.1,44.8,30.07,WSW,247,4.0,4.0,95,0.00,,---,0.04,16.00,VWS V14.00,2013-01-01 14:41:00,
2013-01-01 08:46:00,46.1,44.8,30.08,WSW,247,0.0,3.0,95,0.00,,---,0.04,18.00,VWS V14.00,2013-01-01 14:46:00,
2013-01-01 08:51:00,46.2,44.8,30.08,WSW,247,0.0,3.0,95,0.00,,---,0.04,21.00,VWS V14.00,2013-01-01 14:51:00,
2013-01-01 08:56:00,46.2,44.8,30.08,WSW,247,0.0,1.0,95,0.00,,---,0.04,21.00,VWS V14.00,2013-01-01 14:56:00,
2013-01-01 09:01:00,46.3,45.0,30.08,WSW,247,3.0,5.0,95,0.00,,---,0.04,18.00,VWS V14.00,2013-01-01 15:01:00,
2013-01-01 09:06:00,46.3,45.0,30.09,WSW,247,1.0,3.0,95,0.00,,---,0.04,19.00,VWS V14.00,2013-01-01 15:06:00,
2013-01-01 09:11:00,46.3,45.0,30.09,WSW,247,6.0,6.0,95,0.00,,---,0.04,26.00,VWS V14.00,2013-01-01 15:11:00,
2013-01-01 09:16:00,46.3,45.0,30.09,WSW,247,3.0,5.0,95,0.00,,---,0.04,25.00,VWS V14.00,2013-01-01 15:16:00,
2013-01-01 09:21:00,46.1,44.8,30.08,WSW,247,4.0,6.0,95,0.00,,---,0.04,28.00,VWS V14.00,2013-01-01 15:21:00,
2013-01-01 09:26:00,46.0,44.7,30.09,WSW,247,0.0,5.0,95,0.00,,---,0.04,40.00,VWS V14.00,2013-01-01 15:26:00,
2013-01-01 09:31:00,45.9,44.5,30.10,WSW,247,0.0,8.0,95,0.00,,---,0.04,42.00,VWS V14.00,2013-01-01 15:31:00,
2013-01-01 09:36:00,45.9,44.5,30.10,WSW,247,5.0,6.0,95,0.00,,---,0.04,37.00,VWS V14.00,2013-01-01 15:36:00,
2013-01-01 09:41:00,45.8,44.5,30.11,WSW,247,3.0,6.0,95,0.00,,---,0.04,19.00,VWS V14.00,2013-01-01 15:41:00,
2013-01-01 09:46:00,45.5,44.2,30.12,WSW,247,6.0,7.0,95,0.00,,---,0.04,25.00,VWS V14.00,2013-01-01 15:46:00,
2013-01-01 09:51:00,45.2,43.9,30.13,WSW,247,3.0,8.0,95,0.00,,---,0.04,33.00,VWS V14.00,2013-01-01 15:51:00,
2013-01-01 09:56:00,44.9,43.6,30.13,WSW,247,0.0,7.0,95,0.00,,---,0.04,21.00,VWS V14.00,2013-01-01 15:56:00,
2013-01-01 10:01:00,44.7,43.4,30.13,WSW,247,1.0,7.0,95,0.00,,---,0.04,25.00,VWS V14.00,2013-01-01 16:01:00,
2013-01-01 10:06:00,44.5,43.2,30.13,WSW,247,2.0,7.0,95,0.00,,---,0.04,32.00,VWS V14.00,2013-01-01 16:06:00,
2013-01-01 10:11:00,44.3,43.0,30.13,WSW,247,5.0,7.0,95,0.00,,---,0.04,33.00,VWS V14.00,2013-01-01 16:11:00,
2013-01-01 10:16:00,44.2,42.9,30.13,WSW,247,3.0,5.0,95,0.00,,---,0.04,40.00,VWS V14.00,2013-01-01 16:16:00,
2013-01-01 10:21:00,44.1,42.8,30.14,WSW,247,2.0,6.0,95,0.00,,---,0.04,49.00,VWS V14.00,2013-01-01 16:21:00,
2013-01-01 10:26:00,44.0,42.7,30.14,WSW,247,1.0,7.0,95,0.00,,---,0.04,47.00,VWS V14.00,2013-01-01 16:26:00,
2013-01-01 10:31:00,43.9,42.6,30.14,WSW,247,3.0,7.0,95,0.00,,---,0.04,46.00,VWS V14.00,2013-01-01 16:31:00,
2013-01-01 10:36:00,43.8,42.5,30.15,WSW,247,3.0,7.0,95,0.00,,---,0.04,37.00,VWS V14.00,2013-01-01 16:36:00,
2013-01-01 10:41:00,43.6,42.3,30.15,WSW,247,4.0,7.0,95,0.00,,---,0.04,35.00,VWS V14.00,2013-01-01 16:41:00,
2013-01-01 10:46:00,43.2,41.9,30.15,WSW,247,3.0,8.0,95,0.00,,---,0.04,42.00,VWS V14.00,2013-01-01 16:46:00,
2013-01-01 10:51:00,42.8,41.5,30.15,WSW,247,2.0,8.0,95,0.00,,---,0.04,88.00,VWS V14.00,2013-01-01 16:51:00,
2013-01-01 10:56:00,42.6,41.3,30.16,WSW,247,3.0,6.0,95,0.00,,---,0.04,63.00,VWS V14.00,2013-01-01 16:56:00,
2013-01-01 11:01:00,42.2,40.9,30.16,WSW,247,6.0,10.0,95,0.00,,---,0.04,63.00,VWS V14.00,2013-01-01 17:01:00,
2013-01-01 11:06:00,41.9,40.6,30.16,WSW,247,3.0,6.0,95,0.00,,---,0.04,63.00,VWS V14.00,2013-01-01 17:06:00,
2013-01-01 11:11:00,41.6,40.3,30.16,WSW,247,1.0,10.0,95,0.00,,---,0.04,105.00,VWS V14.00,2013-01-01 17:11:00,
2013-01-01 11:16:00,41.3,40.0,30.16,WSW,247,2.0,11.0,95,0.00,,---,0.04,84.00,VWS V14.00,2013-01-01 17:16:00,
2013-01-01 11:21:00,41.0,39.7,30.16,WSW,255,4.0,11.0,95,0.00,,---,0.04,111.00,VWS V14.00,2013-01-01 17:21:00,
2013-01-01 11:26:00,40.8,39.5,30.16,West,259,1.0,7.0,95,0.00,,---,0.04,63.00,VWS V14.00,2013-01-01 17:26:00,
2013-01-01 11:31:00,40.7,39.4,30.16,West,265,2.0,8.0,95,0.00,,---,0.04,127.00,VWS V14.00,2013-01-01 17:31:00,
2013-01-01 11:36:00,40.5,39.2,30.16,West,266,3.0,7.0,95,0.00,,---,0.04,97.00,VWS V14.00,2013-01-01 17:36:00,
2013-01-01 11:41:00,40.4,39.1,30.16,West,268,6.0,10.0,95,0.00,,---,0.04,107.00,VWS V14.00,2013-01-01 17:41:00,
2013-01-01 11:46:00,40.1,38.8,30.16,West,271,1.0,9.0,95,0.00,,---,0.04,109.00,VWS V14.00,2013-01-01 17:46:00,
2013-01-01 11:51:00,40.0,38.7,30.16,West,271,0.0,9.0,95,0.00,,---,0.04,118.00,VWS V14.00,2013-01-01 17:51:00,
2013-01-01 11:56:00,39.8,38.2,30.17,West,272,5.0,11.0,94,0.00,,---,0.04,127.00,VWS V14.00,2013-01-01 17:56:00,
2013-01-01 12:01:00,39.8,38.2,30.16,West,272,2.0,11.0,94,0.00,,---,0.04,185.00,VWS V14.00,2013-01-01 18:01:00,
2013-01-01 12:06:00,39.8,38.2,30.17,West,272,0.0,9.0,94,0.00,,---,0.04,149.00,VWS V14.00,2013-01-01 18:06:00,
2013-01-01 12:11:00,39.9,38.3,30.17,West,272,5.0,9.0,94,0.00,,---,0.04,151.00,VWS V14.00,2013-01-01 18:11:00,
2013-01-01 12:16:00,40.0,38.4,30.17,West,272,5.0,7.0,94,0.00,,---,0.04,214.00,VWS V14.00,2013-01-01 18:16:00,
2013-01-01 12:21:00,40.1,38.5,30.16,West,273,7.0,11.0,94,0.00,,---,0.04,165.00,VWS V14.00,2013-01-01 18:21:00,
2013-01-01 12:26:00,40.1,38.5,30.16,West,274,6.0,9.0,94,0.00,,---,0.04,179.00,VWS V14.00,2013-01-01 18:26:00,
2013-01-01 12:31:00,40.2,38.6,30.15,West,276,5.0,12.0,94,0.00,,---,0.04,223.00,VWS V14.00,2013-01-01 18:31:00,
2013-01-01 12:36:00,40.4,38.8,30.15,West,276,4.0,5.0,94,0.00,,---,0.04,206.00,VWS V14.00,2013-01-01 18:36:00,
2013-01-01 12:41:00,40.6,38.7,30.15,West,276,5.0,8.0,93,0.00,,---,0.04,176.00,VWS V14.00,2013-01-01 18:41:00,
2013-01-01 12:46:00,40.7,38.8,30.15,West,276,2.0,6.0,93,0.00,,---,0.04,258.00,VWS V14.00,2013-01-01 18:46:00,
2013-01-01 12:51:00,40.9,39.0,30.14,West,276,5.0,7.0,93,0.00,,---,0.04,155.00,VWS V14.00,2013-01-01 18:51:00,
2013-01-01 12:56:00,41.1,39.2,30.13,West,276,0.0,6.0,93,0.00,,---,0.04,183.00,VWS V14.00,2013-01-01 18:56:00,
2013-01-01 13:01:00,41.3,39.2,30.13,West,276,5.0,9.0,92,0.00,,---,0.04,113.00,VWS V14.00,2013-01-01 19:01:00,
2013-01-01 13:06:00,41.5,39.3,30.13,West,276,6.0,9.0,92,0.00,,---,0.04,144.00,VWS V14.00,2013-01-01 19:06:00,
2013-01-01 13:11:00,41.6,39.2,30.13,West,276,5.0,9.0,91,0.00,,---,0.04,144.00,VWS V14.00,2013-01-01 19:11:00,
2013-01-01 13:16:00,41.8,39.1,30.14,West,276,4.0,7.0,90,0.00,,---,0.04,163.00,VWS V14.00,2013-01-01 19:16:00,
2013-01-01 13:21:00,41.9,39.2,30.13,West,276,0.0,8.0,90,0.00,,---,0.04,216.00,VWS V14.00,2013-01-01 19:21:00,
2013-01-01 13:26:00,42.2,39.5,30.13,West,276,4.0,7.0,90,0.00,,---,0.04,267.00,VWS V14.00,2013-01-01 19:26:00,
2013-01-01 13:31:00,42.5,39.5,30.13,West,276,5.0,11.0,89,0.00,,---,0.04,237.00,VWS V14.00,2013-01-01 19:31:00,
2013-01-01 13:36:00,42.9,39.9,30.12,West,277,2.0,9.0,89,0.00,,---,0.04,271.00,VWS V14.00,2013-01-01 19:36:00,
2013-01-01 13:41:00,43.2,39.9,30.12,West,277,4.0,12.0,88,0.00,,---,0.04,383.00,VWS V14.00,2013-01-01 19:41:00,
2013-01-01 13:46:00,43.6,40.0,30.12,West,277,0.0,9.0,87,0.00,,---,0.04,415.00,VWS V14.00,2013-01-01 19:46:00,
2013-01-01 13:51:00,44.4,40.5,30.12,West,277,4.0,9.0,86,0.00,,---,0.04,401.00,VWS V14.00,2013-01-01 19:51:00,
2013-01-01 13:56:00,44.7,40.5,30.11,West,277,4.0,6.0,85,0.00,,---,0.04,195.00,VWS V14.00,2013-01-01 19:56:00,
2013-01-01 14:01:00,44.8,40.3,30.11,West,277,2.0,6.0,84,0.00,,---,0.04,336.00,VWS V14.00,2013-01-01 20:01:00,
2013-01-01 14:06:00,45.2,40.3,30.11,West,277,4.0,7.0,83,0.00,,---,0.04,315.00,VWS V14.00,2013-01-01 20:06:00,
2013-01-01 14:11:00,45.8,40.6,30.11,West,277,7.0,11.0,82,0.00,,---,0.04,374.00,VWS V14.00,2013-01-01 20:11:00,
2013-01-01 14:16:00,46.1,40.3,30.11,West,277,4.0,7.0,80,0.00,,---,0.04,457.00,VWS V14.00,2013-01-01 20:16:00,
2013-01-01 14:21:00,46.7,40.9,30.11,West,277,4.0,12.0,80,0.00,,---,0.04,494.00,VWS V14.00,2013-01-01 20:21:00,
2013-01-01 14:26:00,47.2,40.7,30.11,West,277,1.0,9.0,78,0.00,,---,0.04,237.00,VWS V14.00,2013-01-01 20:26:00,
2013-01-01 14:31:00,47.1,39.9,30.11,West,277,0.0,9.0,76,0.00,,---,0.04,531.00,VWS V14.00,2013-01-01 20:31:00,
2013-01-01 14:36:00,47.1,39.6,30.11,West,277,6.0,8.0,75,0.00,,---,0.04,195.00,VWS V14.00,2013-01-01 20:36:00,
2013-01-01 14:41:00,47.1,40.3,30.11,West,277,6.0,8.0,77,0.00,,---,0.04,513.00,VWS V14.00,2013-01-01 20:41:00,
2013-01-01 14:46:00,47.1,39.6,30.12,West,279,6.0,6.0,75,0.00,,---,0.04,304.00,VWS V14.00,2013-01-01 20:46:00,
2013-01-01 14:51:00,47.1,39.2,30.12,West,277,5.0,13.0,74,0.00,,---,0.04,311.00,VWS V14.00,2013-01-01 20:51:00,
2013-01-01 14:56:00,46.9,39.1,30.12,West,278,4.0,7.0,74,0.00,,---,0.04,221.00,VWS V14.00,2013-01-01 20:56:00,
2013-01-01 15:01:00,47.0,39.2,30.12,West,278,4.0,7.0,74,0.00,,---,0.04,290.00,VWS V14.00,2013-01-01 21:01:00,
2013-01-01 15:06:00,47.1,38.9,30.12,West,278,4.0,7.0,73,0.00,,---,0.04,267.00,VWS V14.00,2013-01-01 21:06:00,
2013-01-01 15:11:00,47.3,39.1,30.13,West,278,4.0,7.0,73,0.00,,---,0.04,227.00,VWS V14.00,2013-01-01 21:11:00,
2013-01-01 15:16:00,47.4,39.2,30.13,West,278,4.0,5.0,73,0.00,,---,0.04,260.00,VWS V14.00,2013-01-01 21:16:00,
2013-01-01 15:21:00,47.6,39.4,30.12,West,278,2.0,6.0,73,0.00,,---,0.04,239.00,VWS V14.00,2013-01-01 21:21:00,
2013-01-01 15:26:00,47.7,39.1,30.13,West,278,2.0,7.0,72,0.00,,---,0.04,193.00,VWS V14.00,2013-01-01 21:26:00,
2013-01-01 15:31:00,47.6,39.0,30.12,West,278,1.0,7.0,72,0.00,,---,0.04,206.00,VWS V14.00,2013-01-01 21:31:00,
2013-01-01 15:36:00,47.6,38.7,30.13,West,278,1.0,6.0,71,0.00,,---,0.04,185.00,VWS V14.00,2013-01-01 21:36:00,
2013-01-01 15:41:00,47.7,38.8,30.13,West,278,0.0,6.0,71,0.00,,---,0.04,172.00,VWS V14.00,2013-01-01 21:41:00,
2013-01-01 15:46:00,47.8,38.5,30.14,West,278,2.0,7.0,70,0.00,,---,0.04,153.00,VWS V14.00,2013-01-01 21:46:00,
2013-01-01 15:51:00,47.9,38.6,30.13,West,278,2.0,7.0,70,0.00,,---,0.04,134.00,VWS V14.00,2013-01-01 21:51:00,
2013-01-01 15:56:00,47.9,38.6,30.14,West,278,0.0,5.0,70,0.00,,---,0.04,123.00,VWS V14.00,2013-01-01 21:56:00,
2013-01-01 16:01:00,47.9,38.2,30.14,West,278,5.0,7.0,69,0.00,,---,0.04,137.00,VWS V14.00,2013-01-01 22:01:00,
2013-01-01 16:06:00,47.9,37.9,30.15,West,278,4.0,5.0,68,0.00,,---,0.04,149.00,VWS V14.00,2013-01-01 22:06:00,
2013-01-01 16:11:00,47.9,37.9,30.15,West,278,2.0,6.0,68,0.00,,---,0.04,116.00,VWS V14.00,2013-01-01 22:11:00,
2013-01-01 16:16:00,47.8,37.4,30.15,West,278,4.0,6.0,67,0.00,,---,0.04,120.00,VWS V14.00,2013-01-01 22:16:00,
2013-01-01 16:21:00,47.8,37.0,30.15,West,278,0.0,6.0,66,0.00,,---,0.04,128.00,VWS V14.00,2013-01-01 22:21:00,
2013-01-01 16:26:00,47.8,37.0,30.15,West,278,1.0,5.0,66,0.00,,---,0.04,123.00,VWS V14.00,2013-01-01 22:26:00,
2013-01-01 16:31:00,47.8,37.0,30.15,West,278,1.0,8.0,66,0.00,,---,0.04,98.00,VWS V14.00,2013-01-01 22:31:00,
2013-01-01 16:36:00,47.7,36.9,30.16,West,278,2.0,5.0,66,0.00,,---,0.04,116.00,VWS V14.00,2013-01-01 22:36:00,
2013-01-01 16:41:00,47.7,36.5,30.16,West,278,2.0,5.0,65,0.00,,---,0.04,113.00,VWS V14.00,2013-01-01 22:41:00,
2013-01-01 16:46:00,47.7,36.1,30.16,West,278,2.0,7.0,64,0.00,,---,0.04,95.00,VWS V14.00,2013-01-01 22:46:00,
2013-01-01 16:51:00,47.6,36.0,30.16,West,278,2.0,7.0,64,0.00,,---,0.04,79.00,VWS V14.00,2013-01-01 22:51:00,
2013-01-01 16:56:00,47.5,35.9,30.16,West,278,1.0,4.0,64,0.00,,---,0.04,60.00,VWS V14.00,2013-01-01 22:56:00,
2013-01-01 17:01:00,47.4,35.8,30.16,West,278,0.0,5.0,64,0.00,,---,0.04,47.00,VWS V14.00,2013-01-01 23:01:00,
2013-01-01 17:06:00,47.3,36.2,30.16,West,278,1.0,4.0,65,0.00,,---,0.04,44.00,VWS V14.00,2013-01-01 23:06:00,
2013-01-01 17:11:00,47.1,36.0,30.16,West,278,0.0,4.0,65,0.00,,---,0.04,37.00,VWS V14.00,2013-01-01 23:11:00,
2013-01-01 17:16:00,46.9,35.8,30.16,West,278,0.0,2.0,65,0.00,,---,0.04,25.00,VWS V14.00,2013-01-01 23:16:00,
2013-01-01 17:21:00,46.7,36.0,30.17,West,278,2.0,2.0,66,0.00,,---,0.04,18.00,VWS V14.00,2013-01-01 23:21:00,
2013-01-01 17:26:00,46.5,35.4,30.16,West,278,1.0,2.0,65,0.00,,---,0.04,14.00,VWS V14.00,2013-01-01 23:26:00,
2013-01-01 17:31:00,46.3,35.6,30.16,West,278,0.0,2.0,66,0.00,,---,0.04,12.00,VWS V14.00,2013-01-01 23:31:00,
2013-01-01 17:36:00,46.2,35.5,30.17,West,278,0.0,1.0,66,0.00,,---,0.04,11.00,VWS V14.00,2013-01-01 23:36:00,
2013-01-01 17:41:00,46.0,35.7,30.17,West,278,1.0,2.0,67,0.00,,---,0.04,5.00,VWS V14.00,2013-01-01 23:41:00,
2013-01-01 17:46:00,45.8,35.8,30.17,West,278,0.0,0.0,68,0.00,,---,0.04,0.00,VWS V14.00,2013-01-01 23:46:00,
2013-01-01 17:51:00,45.4,35.8,30.17,West,278,0.0,0.0,69,0.00,,---,0.04,0.00,VWS V14.00,2013-01-01 23:51:00,
2013-01-01 17:56:00,45.2,36.0,30.17,West,278,0.0,0.0,70,0.00,,---,0.04,0.00,VWS V14.00,2013-01-01 23:56:00,
2013-01-01 18:01:00,44.8,35.6,30.17,West,278,0.0,0.0,70,0.00,,---,0.04,0.00,VWS V14.00,2013-01-02 00:01:00,
2013-01-01 18:06:00,44.4,35.6,30.17,West,278,0.0,0.0,71,0.00,,---,0.04,0.00,VWS V14.00,2013-01-02 00:06:00,
2013-01-01 18:11:00,43.9,35.5,30.18,West,278,0.0,0.0,72,0.00,,---,0.04,0.00,VWS V14.00,2013-01-02 00:11:00,
2013-01-01 18:16:00,43.5,35.4,30.18,West,278,1.0,1.0,73,0.00,,---,0.04,0.00,VWS V14.00,2013-01-02 00:16:00,
2013-01-01 18:21:00,43.1,35.4,30.18,West,278,0.0,1.0,74,0.00,,---,0.04,0.00,VWS V14.00,2013-01-02 00:21:00,
2013-01-01 18:26:00,42.7,35.0,30.18,West,278,0.0,0.0,74,0.00,,---,0.04,0.00,VWS V14.00,2013-01-02 00:26:00,
2013-01-01 18:30:00,42.4,35.0,30.18,West,278,0.0,0.0,75,0.00,,---,0.04,0.00,VWS V14.00,2013-01-02 00:30:00,
2013-01-01 18:35:00,42.0,35.0,30.18,West,278,0.0,2.0,76,0.00,,---,0.04,0.00,VWS V14.00,2013-01-02 00:35:00,
2013-01-01 18:40:00,41.6,34.9,30.18,West,278,0.0,2.0,77,0.00,,---,0.04,0.00,VWS V14.00,2013-01-02 00:40:00,
2013-01-01 18:45:00,41.3,34.7,30.19,West,278,0.0,1.0,77,0.00,,---,0.04,0.00,VWS V14.00,2013-01-02 00:45:00,
2013-01-01 18:50:00,41.1,34.8,30.20,West,278,0.0,1.0,78,0.00,,---,0.04,0.00,VWS V14.00,2013-01-02 00:50:00,
2013-01-01 18:55:00,40.9,34.6,30.20,West,278,0.0,1.0,78,0.00,,---,0.04,0.00,VWS V14.00,2013-01-02 00:55:00,
2013-01-01 19:00:00,40.7,34.4,30.20,West,278,0.0,1.0,78,0.00,,---,0.04,0.00,VWS V14.00,2013-01-02 01:00:00,
2013-01-01 19:05:00,40.6,34.3,30.20,West,278,0.0,1.0,78,0.00,,---,0.04,0.00,VWS V14.00,2013-01-02 01:05:00,
2013-01-01 19:10:00,40.5,34.5,30.21,West,278,0.0,1.0,79,0.00,,---,0.04,0.00,VWS V14.00,2013-01-02 01:10:00,
2013-01-01 19:15:00,40.4,34.4,30.21,West,278,0.0,2.0,79,0.00,,---,0.04,0.00,VWS V14.00,2013-01-02 01:15:00,
2013-01-01 19:20:00,40.4,34.1,30.21,West,278,0.0,2.0,78,0.00,,---,0.04,0.00,VWS V14.00,2013-01-02 01:20:00,
2013-01-01 19:25:00,40.4,34.1,30.21,West,278,0.0,1.0,78,0.00,,---,0.04,0.00,VWS V14.00,2013-01-02 01:25:00,
2013-01-01 19:30:00,40.3,34.0,30.22,West,278,0.0,1.0,78,0.00,,---,0.04,0.00,VWS V14.00,2013-01-02 01:30:00,
2013-01-01 19:35:00,40.2,33.9,30.22,West,278,0.0,0.0,78,0.00,,---,0.04,0.00,VWS V14.00,2013-01-02 01:35:00,
2013-01-01 19:40:00,40.2,33.9,30.23,West,278,0.0,0.0,78,0.00,,---,0.04,0.00,VWS V14.00,2013-01-02 01:40:00,
2013-01-01 19:45:00,40.1,33.8,30.24,West,278,0.0,0.0,78,0.00,,---,0.04,0.00,VWS V14.00,2013-01-02 01:45:00,
2013-01-01 19:50:00,40.1,33.8,30.23,West,278,0.0,1.0,78,0.00,,---,0.04,0.00,VWS V14.00,2013-01-02 01:50:00,
2013-01-01 19:55:00,40.0,33.7,30.24,West,278,0.0,0.0,78,0.00,,---,0.04,0.00,VWS V14.00,2013-01-02 01:55:00,
2013-01-01 20:00:00,40.0,33.7,30.24,West,278,0.0,0.0,78,0.00,,---,0.04,0.00,VWS V14.00,2013-01-02 02:00:00,
2013-01-01 20:05:00,40.0,33.7,30.24,West,278,0.0,0.0,78,0.00,,---,0.04,0.00,VWS V14.00,2013-01-02 02:05:00,
2013-01-01 20:10:00,40.0,33.7,30.24,West,278,0.0,0.0,78,0.00,,---,0.04,0.00,VWS V14.00,2013-01-02 02:10:00,
2013-01-01 20:15:00,40.0,33.4,30.24,West,278,0.0,0.0,77,0.00,,---,0.04,0.00,VWS V14.00,2013-01-02 02:15:00,
2013-01-01 20:20:00,40.0,33.4,30.24,West,278,0.0,0.0,77,0.00,,---,0.04,0.00,VWS V14.00,2013-01-02 02:20:00,
2013-01-01 20:25:00,40.0,33.4,30.24,West,278,0.0,0.0,77,0.00,,---,0.04,0.00,VWS V14.00,2013-01-02 02:25:00,
2013-01-01 20:30:00,40.0,33.4,30.25,West,278,0.0,0.0,77,0.00,,---,0.04,0.00,VWS V14.00,2013-01-02 02:30:00,
2013-01-01 20:35:00,39.9,33.3,30.25,West,278,0.0,0.0,77,0.00,,---,0.04,0.00,VWS V14.00,2013-01-02 02:35:00,
2013-01-01 20:40:00,39.8,33.2,30.25,West,278,0.0,0.0,77,0.00,,---,0.04,0.00,VWS V14.00,2013-01-02 02:40:00,
2013-01-01 20:45:00,39.8,33.5,30.25,West,278,0.0,0.0,78,0.00,,---,0.04,0.00,VWS V14.00,2013-01-02 02:45:00,
2013-01-01 20:50:00,39.6,33.3,30.26,West,278,0.0,0.0,78,0.00,,---,0.04,0.00,VWS V14.00,2013-01-02 02:50:00,
2013-01-01 20:55:00,39.5,33.2,30.26,West,278,0.0,0.0,78,0.00,,---,0.04,0.00,VWS V14.00,2013-01-02 02:55:00,
2013-01-01 21:00:00,39.3,33.0,30.26,West,278,0.0,0.0,78,0.00,,---,0.04,0.00,VWS V14.00,2013-01-02 03:00:00,
2013-01-01 21:05:00,39.1,32.8,30.26,West,278,0.0,0.0,78,0.00,,---,0.04,0.00,VWS V14.00,2013-01-02 03:05:00,
2013-01-01 21:10:00,38.9,33.0,30.26,West,278,0.0,0.0,79,0.00,,---,0.04,0.00,VWS V14.00,2013-01-02 03:10:00,
2013-01-01 21:15:00,38.8,32.9,30.27,West,278,0.0,0.0,79,0.00,,---,0.04,0.00,VWS V14.00,2013-01-02 03:15:00,
2013-01-01 21:20:00,38.7,32.8,30.27,West,278,0.0,0.0,79,0.00,,---,0.04,0.00,VWS V14.00,2013-01-02 03:20:00,
2013-01-01 21:25:00,38.5,32.9,30.27,West,278,0.0,0.0,80,0.00,,---,0.04,0.00,VWS V14.00,2013-01-02 03:25:00,
2013-01-01 21:30:00,38.4,32.8,30.28,West,278,0.0,0.0,80,0.00,,---,0.04,0.00,VWS V14.00,2013-01-02 03:30:00,
2013-01-01 21:35:00,38.3,32.7,30.28,West,278,0.0,0.0,80,0.00,,---,0.04,0.00,VWS V14.00,2013-01-02 03:35:00,
2013-01-01 21:40:00,38.3,32.7,30.28,West,278,0.0,0.0,80,0.00,,---,0.04,0.00,VWS V14.00,2013-01-02 03:40:00,
2013-01-01 21:45:00,38.2,32.6,30.28,West,278,0.0,0.0,80,0.00,,---,0.04,0.00,VWS V14.00,2013-01-02 03:45:00,
2013-01-01 21:50:00,38.0,32.7,30.28,West,278,0.0,0.0,81,0.00,,---,0.04,0.00,VWS V14.00,2013-01-02 03:50:00,
2013-01-01 21:55:00,37.9,32.6,30.28,West,278,0.0,0.0,81,0.00,,---,0.04,0.00,VWS V14.00,2013-01-02 03:55:00,
2013-01-01 22:00:00,37.8,32.5,30.28,West,278,0.0,0.0,81,0.00,,---,0.04,0.00,VWS V14.00,2013-01-02 04:00:00,
2013-01-01 22:05:00,37.7,32.4,30.28,West,278,0.0,0.0,81,0.00,,---,0.04,0.00,VWS V14.00,2013-01-02 04:05:00,
2013-01-01 22:10:00,37.6,32.3,30.28,West,278,0.0,0.0,81,0.00,,---,0.04,0.00,VWS V14.00,2013-01-02 04:10:00,
2013-01-01 22:15:00,37.5,32.2,30.28,West,278,1.0,2.0,81,0.00,,---,0.04,0.00,VWS V14.00,2013-01-02 04:15:00,
2013-01-01 22:20:00,37.4,32.1,30.28,West,278,0.0,4.0,81,0.00,,---,0.04,0.00,VWS V14.00,2013-01-02 04:20:00,
2013-01-01 22:25:00,37.4,32.1,30.28,West,278,0.0,2.0,81,0.00,,---,0.04,0.00,VWS V14.00,2013-01-02 04:25:00,
2013-01-01 22:30:00,37.3,31.7,30.29,West,278,0.0,4.0,80,0.00,,---,0.04,0.00,VWS V14.00,2013-01-02 04:30:00,
2013-01-01 22:35:00,37.3,31.7,30.29,West,278,0.0,1.0,80,0.00,,---,0.04,0.00,VWS V14.00,2013-01-02 04:35:00,
2013-01-01 22:40:00,37.3,31.7,30.30,West,278,0.0,2.0,80,0.00,,---,0.04,0.00,VWS V14.00,2013-01-02 04:40:00,
2013-01-01 22:45:00,37.2,31.3,30.31,West,278,0.0,0.0,79,0.00,,---,0.04,0.00,VWS V14.00,2013-01-02 04:45:00,
2013-01-01 22:50:00,37.2,31.3,30.30,West,278,0.0,0.0,79,0.00,,---,0.04,0.00,VWS V14.00,2013-01-02 04:50:00,
2013-01-01 22:55:00,37.1,31.2,30.29,West,278,0.0,0.0,79,0.00,,---,0.04,0.00,VWS V14.00,2013-01-02 04:55:00,
2013-01-01 23:00:00,37.0,31.1,30.30,West,278,0.0,0.0,79,0.00,,---,0.04,0.00,VWS V14.00,2013-01-02 05:00:00,
2013-01-01 23:01:00,37.0,31.1,30.30,West,278,0.0,0.0,79,0.00,,---,0.04,0.00,VWS V14.00,2013-01-02 05:01:00,
2013-01-01 23:06:00,36.8,30.9,30.31,West,278,0.0,0.0,79,0.00,,---,0.04,0.00,VWS V14.00,2013-01-02 05:06:00,
2013-01-01 23:11:00,36.7,31.1,30.30,West,278,0.0,0.0,80,0.00,,---,0.04,0.00,VWS V14.00,2013-01-02 05:11:00,
2013-01-01 23:16:00,36.5,30.9,30.30,West,278,0.0,0.0,80,0.00,,---,0.04,0.00,VWS V14.00,2013-01-02 05:16:00,
2013-01-01 23:21:00,36.4,30.8,30.30,West,278,0.0,1.0,80,0.00,,---,0.04,0.00,VWS V14.00,2013-01-02 05:21:00,
2013-01-01 23:26:00,36.2,30.6,30.30,West,278,0.0,1.0,80,0.00,,---,0.04,0.00,VWS V14.00,2013-01-02 05:26:00,
2013-01-01 23:31:00,36.0,30.4,30.30,West,278,0.0,2.0,80,0.00,,---,0.04,0.00,VWS V14.00,2013-01-02 05:31:00,
2013-01-01 23:36:00,35.9,30.3,30.30,West,278,1.0,2.0,80,0.00,,---,0.04,0.00,VWS V14.00,2013-01-02 05:36:00,
2013-01-01 23:41:00,35.7,30.1,30.30,West,278,0.0,2.0,80,0.00,,---,0.04,0.00,VWS V14.00,2013-01-02 05:41:00,
2013-01-01 23:46:00,35.6,30.0,30.30,West,278,2.0,2.0,80,0.00,,---,0.04,0.00,VWS V14.00,2013-01-02 05:46:00,
2013-01-01 23:51:00,35.5,30.0,30.30,West,278,0.0,2.0,80,0.00,,---,0.04,0.00,VWS V14.00,2013-01-02 05:51:00,
2013-01-01 23:56:00,35.3,29.8,30.30,West,278,0.0,0.0,80,0.00,,---,0.04,0.00,VWS V14.00,2013-01-02 05:56:00,